Time;durP1;ratioP1;P1;durP2;ratioP2;P2;SDS_P1;SDS_P2;PMS_P1;PMS_P2;Temp;Humidity;BMP_temperature;BMP_pressure;BME280_temperature;BME280_humidity;BME280_pressure;Samples;Min_cycle;Max_cycle;Signal;HPM_P1;HPM_P2
2023/01/23 00:00:49;;;;;;;27.35;15.18;;;0.30;46.30;;;;;;7389674;19;20085;-78
2023/01/23 00:03:19;;;;;;;26.70;14.75;;;0.20;46.10;;;;;;7364882;19;20025;-77
2023/01/23 00:05:58;;;;;;;27.67;15.93;;;0.20;46.20;;;;;;7368065;19;20059;-77
2023/01/23 00:08:29;;;;;;;25.88;15.63;;;0.20;46.20;;;;;;7366510;19;20019;-78
2023/01/23 00:10:59;;;;;;;25.63;14.45;;;0.20;46.20;;;;;;7368265;19;20018;-77
2023/01/23 00:13:29;;;;;;;27.38;16.42;;;0.20;46.20;;;;;;7365835;19;20009;-77
2023/01/23 00:16:05;;;;;;;26.52;15.25;;;0.20;46.20;;;;;;7367223;19;20458;-77
2023/01/23 00:18:35;;;;;;;28.67;16.60;;;0.20;45.90;;;;;;7387949;19;20014;-77
2023/01/23 00:21:09;;;;;;;32.08;16.30;;;0.20;46.10;;;;;;7367658;19;20032;-77
2023/01/23 00:23:39;;;;;;;;;;;0.20;46.20;;;;;;7367515;19;20046;-78
2023/01/23 00:26:14;;;;;;;30.58;16.90;;;0.20;46.20;;;;;;7370096;19;19907;-77
2023/01/23 00:28:44;;;;;;;32.00;17.42;;;0.10;46.20;;;;;;7373643;19;20581;-77
2023/01/23 00:31:18;;;;;;;30.05;16.30;;;0.10;46.20;;;;;;7374970;19;20529;-77
2023/01/23 00:33:49;;;;;;;30.17;16.08;;;0.10;46.20;;;;;;7384802;19;20018;-78
2023/01/23 00:36:18;;;;;;;30.50;16.20;;;0.10;46.30;;;;;;7397230;19;20058;-77
2023/01/23 00:38:48;;;;;;;32.38;16.58;;;0.10;46.30;;;;;;7372993;19;20031;-77
2023/01/23 00:41:18;;;;;;;32.13;16.42;;;0.10;46.30;;;;;;7371660;19;20014;-77
2023/01/23 00:43:50;;;;;;;30.92;16.25;;;0.10;46.40;;;;;;7372839;19;20470;-77
2023/01/23 00:46:24;;;;;;;30.88;17.17;;;0.10;46.30;;;;;;7372662;19;20010;-78
2023/01/23 00:48:54;;;;;;;27.88;15.35;;;0.10;46.60;;;;;;7372249;19;20031;-78
2023/01/23 00:51:24;;;;;;;31.60;16.25;;;0.10;46.50;;;;;;7395849;19;20011;-77
2023/01/23 00:53:54;;;;;;;32.28;16.80;;;0.10;46.60;;;;;;7372453;19;20007;-78
2023/01/23 00:56:24;;;;;;;29.40;16.63;;;0.10;47.00;;;;;;7372784;19;20362;-78
2023/01/23 00:58:54;;;;;;;29.55;16.80;;;0.10;47.10;;;;;;7372318;19;20470;-78
2023/01/23 01:01:27;;;;;;;31.85;16.23;;;0.20;47.10;;;;;;7372981;19;20378;-78
2023/01/23 01:03:57;;;;;;;31.17;15.95;;;0.20;47.00;;;;;;7371541;19;20838;-78
2023/01/23 01:06:28;;;;;;;27.98;16.92;;;0.20;47.10;;;;;;7393508;19;20015;-78
2023/01/23 01:08:58;;;;;;;30.27;16.67;;;0.20;47.80;;;;;;7369585;19;20043;-78
2023/01/23 01:11:28;;;;;;;31.65;16.25;;;0.20;47.30;;;;;;7372555;19;20010;-78
2023/01/23 01:14:00;;;;;;;26.95;15.38;;;0.20;47.20;;;;;;7372364;19;20021;-77
2023/01/23 01:16:32;;;;;;;26.83;15.52;;;0.20;47.00;;;;;;7371830;19;20019;-77
2023/01/23 01:19:02;;;;;;;30.10;16.13;;;0.20;47.30;;;;;;7371895;19;20014;-77
2023/01/23 01:21:32;;;;;;;29.67;16.10;;;0.20;47.20;;;;;;7394584;19;20022;-76
2023/01/23 01:24:02;;;;;;;29.88;16.63;;;0.20;47.30;;;;;;7372560;19;20007;-76
2023/01/23 01:26:32;;;;;;;30.67;16.33;;;0.20;47.50;;;;;;7371442;19;20086;-78
2023/01/23 01:29:02;;;;;;;29.35;16.33;;;0.20;47.40;;;;;;7371776;19;20018;-77
2023/01/23 01:31:34;;;;;;;29.75;16.88;;;0.30;47.40;;;;;;7371431;19;20017;-77
2023/01/23 01:34:08;;;;;;;29.00;15.95;;;0.30;47.00;;;;;;7373409;19;20014;-77
2023/01/23 01:36:38;;;;;;;30.08;16.77;;;0.30;47.00;;;;;;7392359;19;20029;-77
2023/01/23 01:39:13;;;;;;;27.10;15.52;;;0.30;46.80;;;;;;7367436;19;20011;-78
2023/01/23 01:41:43;;;;;;;28.35;15.77;;;0.30;46.90;;;;;;7371685;19;20013;-78
2023/01/23 01:44:18;;;;;;;28.52;16.58;;;0.30;46.80;;;;;;7373323;19;20014;-77
2023/01/23 01:46:51;;;;;;;30.90;17.52;;;0.30;46.90;;;;;;7371842;19;20581;-78
2023/01/23 01:49:25;;;;;;;28.33;16.33;;;0.40;47.10;;;;;;7371581;19;20022;-78
2023/01/23 01:51:59;;;;;;;30.70;18.90;;;0.40;46.60;;;;;;7370271;19;20401;-78
2023/01/23 01:54:33;;;;;;;28.70;16.63;;;0.40;47.00;;;;;;7391084;19;20015;-77
2023/01/23 01:57:08;;;;;;;28.50;15.38;;;0.40;46.60;;;;;;7370657;19;20538;-78
2023/01/23 01:59:42;;;;;;;28.65;16.77;;;0.40;46.50;;;;;;7370903;19;20007;-78
2023/01/23 02:02:17;;;;;;;28.52;16.33;;;0.40;46.50;;;;;;7373091;19;20342;-78
2023/01/23 02:04:51;;;;;;;28.83;15.00;;;0.30;45.90;;;;;;7371731;19;20470;-77
2023/01/23 02:07:24;;;;;;;26.73;14.47;;;0.30;46.20;;;;;;7370619;19;20002;-78
2023/01/23 02:09:55;;;;;;;29.00;15.90;;;0.30;46.30;;;;;;7370138;19;20071;-78
2023/01/23 02:12:26;;;;;;;29.35;15.55;;;0.30;46.30;;;;;;7392016;19;20036;-78
2023/01/23 02:14:56;;;;;;;32.05;16.42;;;0.40;46.20;;;;;;7371523;19;20013;-78
2023/01/23 02:17:30;;;;;;;26.33;15.35;;;0.30;46.10;;;;;;7370049;19;20043;-78
2023/01/23 02:20:12;;;;;;;26.35;15.32;;;0.40;46.30;;;;;;7371246;19;20025;-78
2023/01/23 02:22:49;;;;;;;28.65;14.65;;;0.30;45.20;;;;;;7371035;19;20006;-78
2023/01/23 02:25:28;;;;;;;28.27;15.18;;;0.30;45.50;;;;;;7372458;19;20025;-78
2023/01/23 02:28:01;;;;;;;26.15;13.98;;;0.30;45.70;;;;;;7370136;19;20015;-78
2023/01/23 02:30:31;;;;;;;27.95;14.73;;;0.30;45.40;;;;;;7390913;19;20053;-78
2023/01/23 02:33:11;;;;;;;28.45;14.88;;;0.30;45.10;;;;;;7370752;19;20006;-78
2023/01/23 02:35:41;;;;;;;25.48;14.20;;;0.40;45.30;;;;;;7368996;19;20466;-78
2023/01/23 02:38:11;;;;;;;26.88;14.30;;;0.40;45.10;;;;;;7369987;19;20010;-78
2023/01/23 02:40:43;;;;;;;24.75;13.65;;;0.40;44.90;;;;;;7370021;19;20010;-78
2023/01/23 02:43:21;;;;;;;26.25;13.57;;;0.40;44.10;;;;;;7370238;19;20591;-78
2023/01/23 02:45:52;;;;;;;23.80;13.27;;;0.40;44.00;;;;;;7369871;19;20011;-78
2023/01/23 02:48:23;;;;;;;25.63;14.30;;;0.30;44.00;;;;;;7391088;19;20002;-78
2023/01/23 02:50:52;;;;;;;23.00;13.35;;;0.30;43.40;;;;;;7370935;19;20014;-78
2023/01/23 02:53:22;;;;;;;25.95;14.10;;;0.30;43.00;;;;;;7369174;19;20035;-77
2023/01/23 02:55:52;;;;;;;27.67;13.98;;;0.40;42.50;;;;;;7368638;19;20010;-78
2023/01/23 03:01:10;;;;;;;23.77;13.07;;;0.40;42.50;;;;;;7370190;19;20532;-78
2023/01/23 03:03:41;;;;;;;26.05;13.38;;;0.40;42.50;;;;;;7391665;19;20014;-78
2023/01/23 03:06:11;;;;;;;23.40;14.05;;;0.30;42.40;;;;;;7369154;19;20006;-77
2023/01/23 03:08:46;;;;;;;25.42;13.95;;;0.30;42.40;;;;;;7368201;19;20014;-77
2023/01/23 03:11:20;;;;;;;26.75;13.82;;;0.30;42.10;;;;;;7369663;19;20006;-77
2023/01/23 03:13:52;;;;;;;22.95;13.85;;;0.40;42.00;;;;;;7369350;19;20018;-78
2023/01/23 03:16:22;;;;;;;25.48;13.98;;;0.30;42.20;;;;;;7368652;19;20568;-78
2023/01/23 03:18:54;;;;;;;25.92;13.98;;;0.40;42.00;;;;;;7368196;19;20034;-77
2023/01/23 03:21:23;;;;;;;22.25;12.98;;;0.40;41.00;;;;;;7390851;19;20021;-77
2023/01/23 03:23:53;;;;;;;24.92;13.27;;;0.40;41.70;;;;;;7369199;19;20478;-76
2023/01/23 03:26:23;;;;;;;21.75;12.95;;;0.40;41.80;;;;;;7367874;19;20030;-77
2023/01/23 03:31:38;;;;;;;;;;;0.50;41.40;;;;;;7367639;19;20014;-77
2023/01/23 03:34:08;;;;;;;23.70;13.57;;;0.50;41.40;;;;;;7369455;19;20596;-77
2023/01/23 03:36:40;;;;;;;25.23;13.25;;;0.50;41.00;;;;;;7387905;19;20033;-77
2023/01/23 03:41:52;;;;;;;20.25;12.50;;;0.40;40.80;;;;;;7369010;19;20014;-77
2023/01/23 03:44:24;;;;;;;24.42;12.95;;;0.40;40.30;;;;;;7367574;19;20518;-78
2023/01/23 03:46:54;;;;;;;25.30;13.27;;;0.40;40.60;;;;;;7366553;19;20014;-78
2023/01/23 03:49:24;;;;;;;26.15;13.52;;;0.40;40.50;;;;;;7367809;19;20014;-78
2023/01/23 03:51:54;;;;;;;28.75;14.13;;;0.40;40.60;;;;;;7368244;19;20018;-78
2023/01/23 03:54:24;;;;;;;24.88;13.98;;;0.50;40.30;;;;;;7390914;19;20010;-78
2023/01/23 03:56:54;;;;;;;26.15;14.18;;;0.50;40.40;;;;;;7365841;19;20029;-78
2023/01/23 03:59:27;;;;;;;24.65;14.20;;;0.40;40.40;;;;;;7366757;19;20015;-78
2023/01/23 04:01:57;;;;;;;26.15;12.85;;;0.40;40.80;;;;;;7367022;19;20489;-78
2023/01/23 04:04:26;;;;;;;24.77;14.02;;;0.30;41.40;;;;;;7368064;19;20419;-78
2023/01/23 04:06:56;;;;;;;28.85;14.82;;;0.40;41.70;;;;;;7366709;19;20022;-78
2023/01/23 04:09:27;;;;;;;25.58;14.18;;;0.40;41.60;;;;;;7388386;19;20546;-78
2023/01/23 04:11:57;;;;;;;24.83;13.70;;;0.40;41.10;;;;;;7367076;19;20042;-78
2023/01/23 04:14:36;;;;;;;24.85;13.50;;;0.40;41.70;;;;;;7367754;19;20538;-78
2023/01/23 04:17:06;;;;;;;27.60;14.52;;;0.30;41.80;;;;;;7367354;19;20015;-78
2023/01/23 04:19:37;;;;;;;24.52;13.60;;;0.30;42.30;;;;;;7367208;19;20023;-78
2023/01/23 04:22:08;;;;;;;27.92;14.88;;;0.40;42.20;;;;;;7367472;19;20070;-78
2023/01/23 04:24:38;;;;;;;23.33;13.05;;;0.40;42.10;;;;;;7389428;19;20019;-78
2023/01/23 04:27:08;;;;;;;25.70;13.93;;;0.40;42.00;;;;;;7365210;19;20003;-78
2023/01/23 04:29:40;;;;;;;24.65;13.95;;;0.40;41.80;;;;;;7365218;19;20043;-78
2023/01/23 04:32:10;;;;;;;25.90;14.10;;;0.40;41.40;;;;;;7367197;19;20010;-78
2023/01/23 04:34:40;;;;;;;22.13;12.80;;;0.40;41.30;;;;;;7367271;19;20083;-78
2023/01/23 04:37:10;;;;;;;23.95;13.32;;;0.40;41.00;;;;;;7365422;19;20018;-78
2023/01/23 04:39:40;;;;;;;24.50;13.48;;;0.40;41.20;;;;;;7387896;19;20010;-79
2023/01/23 04:42:10;;;;;;;25.02;13.70;;;0.50;41.10;;;;;;7366956;19;20007;-78
2023/01/23 04:44:42;;;;;;;22.98;13.55;;;0.50;40.90;;;;;;7366653;19;20006;-78
2023/01/23 04:47:12;;;;;;;23.65;13.57;;;0.40;39.60;;;;;;7366162;19;20015;-78
2023/01/23 04:49:42;;;;;;;25.67;13.82;;;0.40;40.20;;;;;;7367243;19;20018;-78
2023/01/23 04:52:12;;;;;;;28.23;13.63;;;0.40;40.00;;;;;;7366663;19;20612;-78
2023/01/23 04:54:42;;;;;;;26.05;13.57;;;0.40;39.70;;;;;;7387900;19;20400;-77
2023/01/23 04:57:12;;;;;;;25.45;13.68;;;0.40;39.50;;;;;;7364111;19;20010;-78
2023/01/23 04:59:44;;;;;;;26.23;13.25;;;0.40;39.30;;;;;;7363889;19;20489;-78
2023/01/23 05:02:14;;;;;;;23.35;12.90;;;0.40;38.90;;;;;;7366906;19;20007;-78
2023/01/23 05:04:44;;;;;;;24.58;13.48;;;0.40;38.40;;;;;;7367772;19;20015;-78
2023/01/23 05:07:14;;;;;;;24.60;13.07;;;0.40;38.10;;;;;;7366702;19;20031;-78
2023/01/23 05:09:44;;;;;;;24.45;13.05;;;0.40;37.50;;;;;;7385882;19;20031;-74
2023/01/23 05:12:14;;;;;;;28.35;13.98;;;0.40;37.50;;;;;;7366574;19;20607;-78
2023/01/23 05:14:47;;;;;;;26.65;13.27;;;0.40;37.00;;;;;;7373276;19;20847;-78
2023/01/23 05:17:17;;;;;;;22.73;12.48;;;0.40;37.00;;;;;;7371682;19;20470;-77
2023/01/23 05:19:46;;;;;;;23.13;13.15;;;0.40;36.60;;;;;;7371963;19;20025;-77
2023/01/23 05:22:16;;;;;;;23.75;12.30;;;0.50;36.00;;;;;;7373469;19;20031;-78
2023/01/23 05:24:46;;;;;;;26.13;13.73;;;0.50;36.00;;;;;;7391789;19;20077;-77
2023/01/23 05:27:16;;;;;;;25.27;12.85;;;0.40;35.10;;;;;;7372404;19;20006;-78
2023/01/23 05:29:49;;;;;;;27.60;13.18;;;0.40;35.00;;;;;;7370961;19;20014;-78
2023/01/23 05:32:18;;;;;;;26.20;13.45;;;0.40;35.00;;;;;;7373503;19;20007;-78
2023/01/23 05:34:48;;;;;;;26.08;13.88;;;0.40;35.00;;;;;;7372530;19;20014;-78
2023/01/23 05:37:19;;;;;;;22.65;12.77;;;0.40;35.10;;;;;;7371460;19;20002;-78
2023/01/23 05:39:49;;;;;;;27.63;14.73;;;0.40;35.10;;;;;;7380495;19;20010;-78
2023/01/23 05:42:18;;;;;;;26.67;12.98;;;0.40;35.20;;;;;;7394302;19;20014;-79
2023/01/23 05:44:51;;;;;;;25.58;12.52;;;0.40;35.40;;;;;;7371556;19;20010;-77
2023/01/23 05:47:20;;;;;;;26.27;13.60;;;0.40;35.10;;;;;;7370398;19;20077;-78
2023/01/23 05:49:50;;;;;;;25.63;13.55;;;0.40;35.50;;;;;;7370533;19;20006;-78
2023/01/23 05:52:21;;;;;;;26.63;13.77;;;0.40;35.90;;;;;;7371293;19;20003;-78
2023/01/23 05:54:51;;;;;;;24.42;13.32;;;0.40;35.90;;;;;;7372696;19;20019;-79
2023/01/23 05:57:21;;;;;;;26.00;13.15;;;0.40;36.20;;;;;;7389881;19;20466;-78
2023/01/23 05:59:53;;;;;;;24.50;13.15;;;0.40;35.30;;;;;;7369708;19;20025;-78
2023/01/23 06:02:23;;;;;;;26.67;13.30;;;0.40;35.00;;;;;;7371248;19;20006;-78
2023/01/23 06:04:53;;;;;;;24.13;13.75;;;0.50;34.40;;;;;;7371223;19;20451;-79
2023/01/23 06:07:24;;;;;;;24.33;13.52;;;0.50;34.30;;;;;;7370194;19;20018;-78
2023/01/23 06:09:54;;;;;;;26.63;13.05;;;0.50;33.80;;;;;;7369095;19;20081;-78
2023/01/23 06:12:24;;;;;;;28.30;14.20;;;0.40;32.60;;;;;;7391704;19;20018;-80
2023/01/23 06:14:57;;;;;;;24.02;13.40;;;0.40;30.90;;;;;;7371322;19;20362;-78
2023/01/23 06:17:27;;;;;;;25.52;12.73;;;0.40;31.20;;;;;;7367895;19;20359;-78
2023/01/23 06:19:57;;;;;;;24.88;12.50;;;0.50;31.10;;;;;;7368845;19;20015;-78
2023/01/23 06:22:27;;;;;;;26.00;13.02;;;0.50;31.30;;;;;;7369890;19;20046;-78
2023/01/23 06:25:00;;;;;;;27.23;13.80;;;0.40;30.80;;;;;;7369699;19;20006;-77
2023/01/23 06:27:29;;;;;;;22.35;12.45;;;0.40;30.80;;;;;;7389898;19;20025;-77
2023/01/23 06:30:02;;;;;;;26.48;13.13;;;0.40;30.80;;;;;;7368572;19;20090;-78
2023/01/23 06:32:32;;;;;;;24.90;12.40;;;0.40;31.10;;;;;;7369947;19;20086;-77
2023/01/23 06:35:02;;;;;;;26.50;13.80;;;0.40;31.20;;;;;;7369334;19;20025;-78
2023/01/23 06:37:31;;;;;;;26.65;13.73;;;0.50;31.90;;;;;;7367961;19;20371;-78
2023/01/23 06:40:01;;;;;;;23.17;12.70;;;0.50;32.00;;;;;;7366491;19;20018;-79
2023/01/23 06:42:31;;;;;;;29.67;14.10;;;0.50;31.60;;;;;;7390218;19;20022;-78
2023/01/23 06:45:03;;;;;;;29.13;14.52;;;0.50;31.50;;;;;;7366750;19;20013;-78
2023/01/23 06:47:33;;;;;;;25.95;14.23;;;0.40;32.00;;;;;;7366665;19;20105;-79
2023/01/23 06:50:04;;;;;;;26.52;14.13;;;0.50;32.30;;;;;;7367876;19;20011;-78
2023/01/23 06:52:33;;;;;;;30.77;14.98;;;0.40;32.70;;;;;;7367175;19;20029;-78
2023/01/23 06:55:03;;;;;;;31.23;15.07;;;0.50;33.00;;;;;;7368681;19;20600;-79
2023/01/23 06:57:33;;;;;;;27.00;14.18;;;0.50;33.30;;;;;;7388169;19;20014;-78
2023/01/23 07:00:06;;;;;;;30.88;14.43;;;0.40;32.90;;;;;;7365455;19;20463;-79
2023/01/23 07:02:36;;;;;;;34.33;16.48;;;0.40;33.00;;;;;;7367291;19;20444;-79
2023/01/23 07:05:07;;;;;;;28.30;14.43;;;0.40;32.90;;;;;;7367861;19;20027;-78
2023/01/23 07:07:37;;;;;;;32.95;15.55;;;0.50;33.40;;;;;;7367813;19;20043;-78
2023/01/23 07:10:08;;;;;;;27.05;14.85;;;0.40;32.50;;;;;;7367717;19;20477;-79
2023/01/23 07:12:38;;;;;;;29.80;14.25;;;0.50;33.00;;;;;;7389707;19;20018;-80
2023/01/23 07:15:11;;;;;;;31.88;15.23;;;0.40;32.20;;;;;;7367199;19;20070;-79
2023/01/23 07:17:41;;;;;;;28.60;14.30;;;0.40;33.30;;;;;;7366378;19;20014;-79
2023/01/23 07:20:13;;;;;;;27.13;14.23;;;0.40;33.40;;;;;;7366832;19;20006;-80
2023/01/23 07:22:43;;;;;;;26.83;14.02;;;0.50;33.30;;;;;;7367032;19;20014;-79
2023/01/23 07:25:14;;;;;;;26.67;14.25;;;0.50;33.30;;;;;;7368075;19;20057;-79
2023/01/23 07:27:44;;;;;;;28.48;14.25;;;0.50;32.80;;;;;;7388718;19;20684;-79
2023/01/23 07:30:18;;;;;;;37.50;15.10;;;0.40;32.00;;;;;;7365811;19;20014;-79
2023/01/23 07:32:48;;;;;;;27.55;14.85;;;0.50;32.70;;;;;;7367844;19;20018;-80
2023/01/23 07:35:18;;;;;;;30.23;15.48;;;0.50;32.20;;;;;;7365003;19;20018;-80
2023/01/23 07:37:48;;;;;;;29.23;15.45;;;0.50;31.70;;;;;;7366475;19;20493;-80
2023/01/23 07:40:20;;;;;;;30.25;15.18;;;0.50;31.90;;;;;;7365392;19;20014;-80
2023/01/23 07:42:50;;;;;;;33.08;15.23;;;0.50;31.50;;;;;;7366892;19;20086;-80
2023/01/23 07:45:22;;;;;;;31.52;14.82;;;0.50;32.20;;;;;;7388213;19;20081;-81
2023/01/23 07:47:52;;;;;;;29.08;16.17;;;0.50;30.80;;;;;;7365530;19;20478;-80
2023/01/23 07:50:22;;;;;;;30.63;15.48;;;0.50;31.20;;;;;;7362995;19;20359;-80
2023/01/23 07:52:52;;;;;;;29.08;14.93;;;0.50;30.80;;;;;;7366809;19;20027;-80
2023/01/23 07:55:27;;;;;;;32.45;15.27;;;0.60;31.60;;;;;;7366378;19;20010;-79
2023/01/23 07:57:58;;;;;;;31.73;15.60;;;0.60;30.30;;;;;;7366743;19;20025;-79
2023/01/23 08:00:31;;;;;;;26.60;14.48;;;0.60;30.20;;;;;;7384757;19;20022;-79
2023/01/23 08:03:01;;;;;;;29.35;15.00;;;0.60;30.10;;;;;;7365996;19;20011;-80
2023/01/23 08:05:31;;;;;;;29.92;15.15;;;0.60;29.50;;;;;;7366930;19;20015;-80
2023/01/23 08:08:01;;;;;;;30.83;15.48;;;0.70;29.30;;;;;;7366233;19;20086;-79
2023/01/23 08:10:42;;;;;;;30.48;14.27;;;0.70;29.30;;;;;;7364680;19;20018;-80
2023/01/23 08:13:12;;;;;;;31.42;15.23;;;0.70;28.40;;;;;;7365385;19;20074;-78
2023/01/23 08:15:45;;;;;;;29.17;14.48;;;0.70;28.10;;;;;;7388733;19;20414;-79
2023/01/23 08:18:15;;;;;;;33.28;13.70;;;0.80;28.20;;;;;;7365635;19;20010;-80
2023/01/23 08:20:45;;;;;;;30.23;14.15;;;0.80;27.50;;;;;;7366486;19;20015;-79
2023/01/23 08:23:14;;;;;;;29.05;14.95;;;0.80;27.20;;;;;;7367868;19;20027;-78
2023/01/23 08:25:44;;;;;;;29.02;15.77;;;0.80;27.80;;;;;;7360154;19;20022;-79
2023/01/23 08:28:14;;;;;;;30.58;15.90;;;0.80;27.10;;;;;;7352497;19;20115;-79
2023/01/23 08:30:47;;;;;;;26.02;13.95;;;0.90;27.00;;;;;;7376367;19;20356;-77
2023/01/23 08:33:17;;;;;;;29.65;15.32;;;0.90;26.40;;;;;;7364708;19;20074;-76
2023/01/23 08:35:51;;;;;;;32.45;16.08;;;0.90;26.10;;;;;;7365756;19;20029;-77
2023/01/23 08:38:25;;;;;;;30.23;14.98;;;0.80;25.90;;;;;;7363662;19;20013;-77
2023/01/23 08:40:56;;;;;;;30.00;14.85;;;0.90;26.40;;;;;;7364465;19;20362;-77
2023/01/23 08:43:25;;;;;;;28.50;14.48;;;0.80;26.30;;;;;;7366206;19;20094;-77
2023/01/23 08:45:59;;;;;;;30.23;14.98;;;0.80;26.10;;;;;;7366108;19;20026;-77
2023/01/23 08:48:30;;;;;;;27.70;14.50;;;0.90;23.80;;;;;;7392311;19;20450;-78
2023/01/23 08:51:01;;;;;;;25.77;13.63;;;0.90;23.80;;;;;;7372838;19;20014;-76
2023/01/23 08:53:33;;;;;;;27.77;13.95;;;1.00;20.50;;;;;;7373092;19;20486;-78
2023/01/23 08:56:04;;;;;;;29.23;14.63;;;1.00;17.90;;;;;;7372689;19;20021;-76
2023/01/23 08:58:34;;;;;;;22.88;12.85;;;1.10;17.10;;;;;;7371205;19;20485;-76
2023/01/23 09:01:13;;;;;;;22.10;12.80;;;1.10;12.70;;;;;;7373142;19;20848;-77
2023/01/23 09:03:43;;;;;;;19.58;11.85;;;1.20;13.20;;;;;;7394912;19;20022;-78
2023/01/23 09:06:13;;;;;;;22.38;12.48;;;1.20;10.20;;;;;;7373256;19;20304;-77
2023/01/23 09:08:44;;;;;;;23.92;13.38;;;1.30;8.30;;;;;;7369903;19;20023;-77
2023/01/23 09:11:15;;;;;;;23.95;12.02;;;1.40;7.40;;;;;;7372096;19;20011;-77
2023/01/23 09:13:46;;;;;;;24.98;13.68;;;1.30;5.90;;;;;;7372873;19;20022;-77
2023/01/23 09:16:19;;;;;;;22.80;11.73;;;1.40;5.80;;;;;;7371971;19;20589;-76
2023/01/23 09:18:49;;;;;;;20.33;11.63;;;1.40;4.50;;;;;;7381241;19;20010;-77
2023/01/23 09:21:19;;;;;;;22.98;11.43;;;1.50;4.50;;;;;;7395228;19;20122;-77
2023/01/23 09:23:49;;;;;;;20.30;11.05;;;1.50;3.00;;;;;;7373267;19;20021;-77
2023/01/23 09:26:19;;;;;;;20.15;10.55;;;1.50;1.70;;;;;;7371543;19;20042;-76
2023/01/23 09:28:48;;;;;;;20.70;10.32;;;1.60;1.00;;;;;;7371374;19;20011;-78
2023/01/23 09:31:22;;;;;;;16.75;8.93;;;1.60;1.00;;;;;;7371188;19;20007;-77
2023/01/23 09:33:52;;;;;;;21.45;11.38;;;1.50;1.00;;;;;;7371633;19;20017;-77
2023/01/23 09:36:22;;;;;;;16.00;9.02;;;1.50;1.00;;;;;;7391944;19;20021;-77
2023/01/23 09:39:10;;;;;;;16.98;9.95;;;1.50;1.00;;;;;;7369786;19;20118;-76
2023/01/23 09:41:42;;;;;;;20.15;9.50;;;1.50;1.00;;;;;;7371690;19;20007;-76
2023/01/23 09:44:17;;;;;;;15.30;8.82;;;1.40;1.00;;;;;;7373011;19;20005;-76
2023/01/23 09:46:53;;;;;;;17.65;10.25;;;1.40;1.00;;;;;;7371731;19;20014;-77
2023/01/23 09:49:27;;;;;;;15.85;9.25;;;1.40;1.00;;;;;;7369541;19;20564;-78
2023/01/23 09:52:03;;;;;;;17.08;9.30;;;1.50;1.00;;;;;;7371685;19;20018;-77
2023/01/23 09:54:38;;;;;;;17.58;10.07;;;1.40;1.00;;;;;;7394326;19;20025;-77
2023/01/23 09:57:15;;;;;;;16.77;9.57;;;1.40;1.00;;;;;;7370150;19;20014;-77
2023/01/23 09:59:51;;;;;;;16.55;10.30;;;1.50;1.00;;;;;;7366244;19;20102;-77
2023/01/23 10:02:32;;;;;;;20.33;9.82;;;1.40;1.00;;;;;;7368937;19;20066;-77
2023/01/23 10:05:03;;;;;;;19.75;10.63;;;1.50;1.00;;;;;;7369865;19;20034;-75
2023/01/23 10:07:46;;;;;;;19.08;9.82;;;1.50;1.00;;;;;;7369895;19;20007;-76
2023/01/23 10:10:48;;;;;;;20.20;11.05;;;1.50;1.00;;;;;;7367753;19;20013;-76
2023/01/23 10:13:34;;;;;;;19.48;11.85;;;1.50;1.00;;;;;;7368916;19;20010;-76
2023/01/23 10:16:26;;;;;;;20.10;10.38;;;1.50;1.00;;;;;;7368400;19;20082;-75
2023/01/23 10:19:16;;;;;;;24.58;13.13;;;1.60;1.00;;;;;;7368501;19;20077;-77
2023/01/23 10:21:53;;;;;;;23.42;12.02;;;1.60;1.00;;;;;;7388885;19;20018;-77
2023/01/23 10:24:41;;;;;;;16.67;9.27;;;1.70;1.00;;;;;;7367303;19;20009;-77
2023/01/23 10:27:20;;;;;;;18.13;10.27;;;1.70;1.00;;;;;;7368915;19;20010;-76
2023/01/23 10:29:54;;;;;;;28.17;14.77;;;1.60;1.00;;;;;;7367742;19;20027;-75
2023/01/23 10:32:27;;;;;;;17.88;10.75;;;1.60;1.00;;;;;;7369329;19;20474;-76
2023/01/23 10:35:04;;;;;;;16.60;10.32;;;1.60;1.00;;;;;;7370396;19;20078;-76
2023/01/23 10:37:44;;;;;;;18.67;10.52;;;1.70;1.00;;;;;;7368756;19;20018;-76
2023/01/23 10:40:16;;;;;;;16.70;9.85;;;1.70;1.00;;;;;;7366717;19;20482;-76
2023/01/23 10:42:46;;;;;;;17.50;9.98;;;1.80;1.00;;;;;;7390387;19;20006;-76
2023/01/23 10:45:20;;;;;;;17.52;10.68;;;1.80;1.00;;;;;;7369581;19;20006;-77
2023/01/23 10:47:51;;;;;;;18.85;11.27;;;1.80;1.00;;;;;;7368370;19;20011;-77
2023/01/23 10:50:38;;;;;;;18.52;10.40;;;1.80;1.00;;;;;;7368104;19;20064;-77
2023/01/23 10:53:10;;;;;;;16.75;8.88;;;1.90;1.00;;;;;;7369820;19;20011;-75
2023/01/23 10:55:46;;;;;;;17.08;9.43;;;1.80;1.00;;;;;;7368330;19;20011;-77
2023/01/23 10:58:31;;;;;;;18.42;10.60;;;1.90;1.00;;;;;;7368551;19;20017;-75
2023/01/23 11:01:01;;;;;;;17.63;9.55;;;1.90;1.00;;;;;;7367896;19;20010;-76
2023/01/23 11:03:34;;;;;;;21.00;10.75;;;1.90;1.00;;;;;;7388416;19;20435;-77
2023/01/23 11:06:09;;;;;;;20.70;11.88;;;1.80;1.00;;;;;;7366619;19;20007;-77
2023/01/23 11:08:41;;;;;;;21.35;11.68;;;1.80;1.00;;;;;;7366191;19;20023;-78
2023/01/23 11:11:21;;;;;;;;;;;1.80;1.00;;;;;;7369755;19;20375;-77
2023/01/23 11:14:04;;;;;;;18.25;10.25;;;1.80;1.00;;;;;;7369373;19;19915;-77
2023/01/23 11:16:34;;;;;;;17.48;10.73;;;1.80;1.00;;;;;;7370097;19;20010;-78
2023/01/23 11:19:22;;;;;;;18.70;10.73;;;1.80;1.00;;;;;;7367775;19;20018;-75
2023/01/23 11:21:58;;;;;;;18.92;10.80;;;1.80;1.00;;;;;;7366552;19;20090;-77
2023/01/23 11:24:35;;;;;;;20.17;11.40;;;1.80;1.00;;;;;;7390807;19;20007;-78
2023/01/23 11:27:22;;;;;;;20.77;10.85;;;1.80;1.00;;;;;;7368757;19;20006;-77
2023/01/23 11:30:28;;;;;;;17.50;10.23;;;1.90;1.00;;;;;;7366508;19;20014;-78
2023/01/23 11:33:00;;;;;;;18.00;11.05;;;2.10;1.00;;;;;;7367441;19;20563;-77
2023/01/23 11:35:59;;;;;;;20.85;10.60;;;2.10;1.00;;;;;;7367237;19;20525;-76
2023/01/23 11:38:37;;;;;;;17.85;9.30;;;2.10;1.00;;;;;;7365974;19;20020;-77
2023/01/23 11:41:16;;;;;;;18.73;10.50;;;2.10;1.00;;;;;;7366733;19;20551;-75
2023/01/23 11:43:46;;;;;;;16.20;10.13;;;2.20;1.00;;;;;;7366295;19;20726;-77
2023/01/23 11:46:40;;;;;;;21.70;10.77;;;2.10;1.00;;;;;;7368072;19;20038;-77
2023/01/23 11:49:23;;;;;;;20.45;11.15;;;2.10;1.00;;;;;;7366042;19;20042;-77
2023/01/23 11:52:20;;;;;;;18.08;9.60;;;2.10;1.00;;;;;;7365967;19;20033;-77
2023/01/23 11:55:09;;;;;;;15.32;8.75;;;2.00;1.00;;;;;;7369938;19;20018;-76
2023/01/23 11:57:55;;;;;;;21.13;11.35;;;1.90;1.00;;;;;;7388048;19;20007;-77
2023/01/23 12:00:34;;;;;;;19.52;9.48;;;2.00;1.00;;;;;;7363854;19;20021;-77
2023/01/23 12:03:37;;;;;;;19.92;10.55;;;1.90;1.00;;;;;;7360685;19;20011;-75
2023/01/23 12:06:33;;;;;;;22.52;11.82;;;1.90;1.00;;;;;;7362783;19;20039;-77
2023/01/23 12:09:12;;;;;;;18.60;11.35;;;2.10;1.00;;;;;;7362918;19;20010;-77
2023/01/23 12:11:58;;;;;;;20.08;10.25;;;2.20;1.00;;;;;;7365830;19;20007;-77
2023/01/23 12:14:33;;;;;;;19.77;10.30;;;2.40;1.00;;;;;;7365023;19;20015;-76
2023/01/23 12:17:12;;;;;;;18.90;10.45;;;2.30;1.00;;;;;;7365221;19;20003;-77
2023/01/23 12:20:00;;;;;;;20.63;11.20;;;2.20;1.00;;;;;;7364373;19;20359;-76
2023/01/23 12:22:42;;;;;;;20.67;11.07;;;2.30;1.00;;;;;;7368066;19;20513;-76
2023/01/23 12:25:24;;;;;;;20.17;10.50;;;2.20;1.00;;;;;;7373426;19;20021;-78
2023/01/23 12:28:02;;;;;;;25.25;10.75;;;2.20;1.00;;;;;;7372351;19;20019;-77
2023/01/23 12:31:05;;;;;;;19.05;10.35;;;2.10;1.00;;;;;;7389875;19;20518;-76
2023/01/23 12:33:59;;;;;;;18.63;10.55;;;2.00;1.00;;;;;;7373904;19;20015;-76
2023/01/23 12:36:47;;;;;;;16.55;9.88;;;2.00;1.00;;;;;;7372480;19;20014;-77
2023/01/23 12:40:06;;;;;;;20.60;10.65;;;2.10;1.00;;;;;;7369580;19;20018;-76
2023/01/23 12:42:44;;;;;;;23.95;10.50;;;2.10;1.00;;;;;;7371531;19;20011;-76
2023/01/23 12:45:23;;;;;;;17.38;9.15;;;2.10;1.00;;;;;;7370279;19;20010;-75
2023/01/23 12:48:04;;;;;;;18.17;10.15;;;2.10;1.00;;;;;;7372757;19;20006;-77
2023/01/23 12:50:42;;;;;;;23.58;10.63;;;2.20;1.00;;;;;;7368259;19;20027;-76
2023/01/23 12:53:14;;;;;;;17.33;9.98;;;2.20;1.00;;;;;;7368909;19;20023;-76
2023/01/23 12:55:55;;;;;;;18.77;9.85;;;2.30;1.00;;;;;;7372482;19;20002;-76
2023/01/23 12:58:29;;;;;;;17.92;9.35;;;2.30;1.00;;;;;;7370181;19;20010;-75
2023/01/23 13:01:22;;;;;;;18.55;10.35;;;2.50;1.00;;;;;;7369167;19;20021;-77
2023/01/23 13:04:11;;;;;;;19.58;10.18;;;2.50;1.00;;;;;;7372983;19;20488;-76
2023/01/23 13:06:59;;;;;;;20.35;10.38;;;2.60;1.00;;;;;;7393048;19;20002;-76
2023/01/23 13:09:38;;;;;;;17.83;10.07;;;2.60;1.00;;;;;;7364787;19;20019;-76
2023/01/23 13:12:17;;;;;;;18.35;9.95;;;2.40;1.00;;;;;;7368186;19;20018;-75
2023/01/23 13:14:53;;;;;;;16.95;10.10;;;2.50;1.00;;;;;;7370921;19;20062;-78
2023/01/23 13:17:49;;;;;;;19.08;9.93;;;2.70;1.00;;;;;;7368668;19;20054;-78
2023/01/23 13:23:24;;;;;;;20.88;9.93;;;2.80;1.00;;;;;;7369975;19;20026;-76
2023/01/23 13:26:32;;;;;;;17.30;10.18;;;2.70;1.00;;;;;;7371556;19;20401;-77